createdAt,value
2019-01-10T00:02:00.264Z,99478.16
2019-01-10T00:04:04.657Z,99489.06
2019-01-10T00:06:09.626Z,99479.73
2019-01-10T00:08:10.620Z,99480.46
2019-01-10T00:10:14.191Z,99488.65
2019-01-10T00:12:15.019Z,99490.20
2019-01-10T00:14:15.777Z,99494.22
2019-01-10T00:16:17.860Z,99494.98
2019-01-10T00:18:32.616Z,99494.97
2019-01-10T00:20:34.743Z,99496.91
2019-01-10T00:22:45.653Z,99502.89
2019-01-10T00:24:46.579Z,99490.86
2019-01-10T00:26:49.473Z,99507.31
2019-01-10T00:28:50.533Z,99509.60
2019-01-10T00:30:54.785Z,99507.69
2019-01-10T00:32:57.918Z,99509.89
2019-01-10T00:35:03.903Z,99514.84
2019-01-10T00:37:05.126Z,99513.09
2019-01-10T00:39:05.989Z,99516.13
2019-01-10T00:41:06.812Z,99517.88
2019-01-10T00:43:07.684Z,99515.58
2019-01-10T00:45:10.963Z,99512.48
2019-01-10T00:47:11.776Z,99510.17
2019-01-10T00:49:13.053Z,99512.46
2019-01-10T00:51:13.886Z,99515.59
2019-01-10T00:53:37.574Z,99521.03
2019-01-10T00:55:17.659Z,99522.19
2019-01-10T00:57:18.997Z,99520.94
2019-01-10T00:59:20.334Z,99525.81
2019-01-10T01:01:24.212Z,99530.58
2019-01-10T01:03:32.524Z,99530.85
2019-01-10T01:05:47.028Z,99535.08
2019-01-10T01:08:06.521Z,99529.58
2019-01-10T01:10:15.413Z,99529.22
2019-01-10T01:12:16.727Z,99531.77
2019-01-10T01:14:23.538Z,99533.70
2019-01-10T01:16:36.753Z,99531.59
2019-01-10T01:19:00.626Z,99526.53
2019-01-10T01:21:08.987Z,99537.46
2019-01-10T01:23:17.892Z,99541.63
2019-01-10T01:25:31.807Z,99544.28
2019-01-10T01:27:32.661Z,99551.52
2019-01-10T01:29:38.655Z,99546.48
2019-01-10T01:31:39.404Z,99548.52
2019-01-10T01:33:40.532Z,99547.39
2019-01-10T01:35:41.551Z,99548.22
2019-01-10T01:37:43.486Z,99554.59
2019-01-10T01:39:45.415Z,99554.85
2019-01-10T01:41:46.151Z,99556.23
2019-01-10T01:43:47.386Z,99567.02
2019-01-10T01:45:56.847Z,99568.00
2019-01-10T01:47:57.803Z,99578.51
2019-01-10T01:50:00.232Z,99585.56
2019-01-10T01:52:20.877Z,99583.08
2019-01-10T01:54:29.739Z,99574.06
2019-01-10T01:56:30.605Z,99576.65
2019-01-10T01:58:32.962Z,99583.27
2019-01-10T02:00:34.511Z,99588.87
2019-01-10T02:02:35.885Z,99582.44
2019-01-10T02:04:36.591Z,99592.28
2019-01-10T02:06:37.324Z,99596.23
2019-01-10T02:08:39.404Z,99598.17
2019-01-10T02:10:40.543Z,99600.19
2019-01-10T02:12:41.836Z,99602.95
2019-01-10T02:14:47.953Z,99600.74
2019-01-10T02:16:49.103Z,99601.84
2019-01-10T02:18:51.887Z,99605.52
2019-01-10T02:20:54.714Z,99600.86
2019-01-10T02:22:55.482Z,99610.39
2019-01-10T02:24:59.519Z,99606.64
2019-01-10T02:27:00.355Z,99603.88
2019-01-10T02:29:01.418Z,99606.19
2019-01-10T02:31:02.392Z,99613.89
2019-01-10T02:33:03.263Z,99620.43
2019-01-10T02:35:05.630Z,99624.40
2019-01-10T02:37:08.599Z,99620.69
2019-01-10T02:39:09.883Z,99620.80
2019-01-10T02:41:11.772Z,99627.25
2019-01-10T02:43:12.625Z,99625.22
2019-01-10T02:45:15.270Z,99629.61
2019-01-10T02:47:16.121Z,99641.50
2019-01-10T02:49:17.051Z,99640.66
2019-01-10T02:51:18.098Z,99640.22
2019-01-10T02:53:19.209Z,99639.11
2019-01-10T02:55:19.966Z,99638.00
2019-01-10T02:57:21.296Z,99639.17
2019-01-10T02:59:22.624Z,99643.34
2019-01-10T03:03:34.818Z,99647.36
2019-01-10T03:03:49.294Z,99645.61
2019-01-10T03:05:35.630Z,99651.98
2019-01-10T03:08:01.046Z,99650.77
2019-01-10T03:09:41.166Z,99652.59
2019-01-10T03:11:42.140Z,99656.46
2019-01-10T03:13:43.152Z,99653.98
2019-01-10T03:15:43.959Z,99653.33
2019-01-10T03:17:45.063Z,99654.80
2019-01-10T03:19:46.022Z,99657.82
2019-01-10T03:21:48.364Z,99659.20
2019-01-10T03:23:50.106Z,99657.62
2019-01-10T03:25:52.744Z,99657.17
2019-01-10T03:27:53.488Z,99658.09
2019-01-10T03:29:54.221Z,99658.45
2019-01-10T03:32:00.774Z,99661.21
2019-01-10T03:34:03.113Z,99658.45
2019-01-10T03:36:04.200Z,99655.23
2019-01-10T03:38:05.260Z,99656.25
2019-01-10T03:40:11.976Z,99650.81
2019-01-10T03:42:13.724Z,99653.31
2019-01-10T03:44:14.793Z,99661.31
2019-01-10T03:46:15.632Z,99655.72
2019-01-10T03:48:16.696Z,99653.05
2019-01-10T03:50:17.687Z,99650.84
2019-01-10T03:52:18.715Z,99652.32
2019-01-10T03:54:20.890Z,99649.82
2019-01-10T03:56:22.138Z,99646.14
2019-01-10T03:58:30.474Z,99650.84
2019-01-10T04:00:37.703Z,99654.25
2019-01-10T04:02:44.372Z,99651.30
2019-01-10T04:04:45.237Z,99650.92
2019-01-10T04:06:47.136Z,99645.30
2019-01-10T04:08:47.920Z,99652.03
2019-01-10T04:10:48.814Z,99645.77
2019-01-10T04:12:49.706Z,99644.86
2019-01-10T04:14:50.370Z,99647.99
2019-01-10T04:16:53.340Z,99647.17
2019-01-10T04:18:54.051Z,99648.37
2019-01-10T04:20:54.829Z,99651.11
2019-01-10T04:22:55.949Z,99646.06
2019-01-10T04:24:56.701Z,99644.91
2019-01-10T04:26:57.518Z,99639.17
2019-01-10T04:28:58.246Z,99639.17
2019-01-10T04:30:59.027Z,99649.92
2019-01-10T04:32:59.800Z,99655.70
2019-01-10T04:35:00.524Z,99649.54
2019-01-10T04:37:01.225Z,99653.31
2019-01-10T04:39:05.142Z,99656.08
2019-01-10T04:41:05.909Z,99661.50
2019-01-10T04:43:06.694Z,99663.08
2019-01-10T04:45:07.715Z,99665.28
2019-01-10T04:47:08.770Z,99668.59
2019-01-10T04:49:09.523Z,99663.25
2019-01-10T04:51:10.523Z,99668.59
2019-01-10T04:53:11.251Z,99667.49
2019-01-10T04:55:12.215Z,99669.16
2019-01-10T04:57:14.172Z,99661.78
2019-01-10T04:59:15.223Z,99664.46
2019-01-10T05:01:15.968Z,99667.94
2019-01-10T05:03:17.883Z,99668.39
2019-01-10T05:05:19.948Z,99670.89
2019-01-10T05:07:20.743Z,99662.71
2019-01-10T05:09:21.944Z,99668.00
2019-01-10T05:11:22.992Z,99667.05
2019-01-10T05:13:23.793Z,99671.30
2019-01-10T05:15:24.537Z,99671.49
2019-01-10T05:17:25.834Z,99667.77
2019-01-10T05:19:26.903Z,99663.52
2019-01-10T05:21:29.241Z,99671.05
2019-01-10T05:23:29.934Z,99668.34
2019-01-10T05:25:30.965Z,99669.50
2019-01-10T05:27:31.672Z,99668.32
2019-01-10T05:29:34.675Z,99665.37
2019-01-10T05:31:35.369Z,99672.25
2019-01-10T05:33:36.105Z,99674.16
2019-01-10T05:35:37.109Z,99676.97
2019-01-10T05:37:43.878Z,99682.09
2019-01-10T05:39:47.557Z,99684.91
2019-01-10T05:41:47.975Z,99676.03
2019-01-10T05:43:48.816Z,99682.62
2019-01-10T05:45:49.521Z,99680.94
2019-01-10T05:47:50.340Z,99686.97
2019-01-10T05:49:50.924Z,99684.73
2019-01-10T05:51:52.621Z,99694.44
2019-01-10T05:53:53.664Z,99700.16
2019-01-10T05:55:55.627Z,99706.19
2019-01-10T05:57:56.248Z,99711.08
2019-01-10T05:59:57.300Z,99712.70
2019-01-10T06:01:58.017Z,99712.17
2019-01-10T06:03:59.787Z,99719.87
2019-01-10T06:06:00.711Z,99715.80
2019-01-10T06:08:01.807Z,99718.70
2019-01-10T06:10:13.747Z,99724.77
2019-01-10T06:12:25.411Z,99727.08
2019-01-10T06:14:18.033Z,99725.51
2019-01-10T06:16:18.970Z,99722.80
2019-01-10T06:18:20.792Z,99719.78
2019-01-10T06:20:24.483Z,99719.83
2019-01-10T06:22:27.417Z,99728.36
2019-01-10T06:24:29.835Z,99724.01
2019-01-10T06:26:30.705Z,99726.75
2019-01-10T06:28:31.856Z,99733.09
2019-01-10T06:30:32.934Z,99739.23
2019-01-10T06:32:34.006Z,99726.25
2019-01-10T06:34:35.804Z,99727.74
2019-01-10T06:36:38.029Z,99733.63
2019-01-10T06:38:40.367Z,99734.36
2019-01-10T06:40:42.342Z,99734.33
2019-01-10T06:42:43.175Z,99742.58
2019-01-10T06:44:44.724Z,99741.95
2019-01-10T06:46:45.869Z,99745.68
2019-01-10T06:48:46.639Z,99746.81
2019-01-10T06:50:47.582Z,99750.91
2019-01-10T06:52:48.476Z,99749.59
2019-01-10T06:54:56.565Z,99744.73
2019-01-10T06:56:54.223Z,99758.81
2019-01-10T06:58:57.203Z,99758.83
2019-01-10T07:00:58.522Z,99763.02
2019-01-10T07:02:59.314Z,99766.23
2019-01-10T07:05:00.286Z,99761.89
2019-01-10T07:07:02.314Z,99765.66
2019-01-10T07:09:06.269Z,99767.55
2019-01-10T07:11:07.116Z,99774.17
2019-01-10T07:13:09.107Z,99773.05
2019-01-10T07:15:10.948Z,99776.66
2019-01-10T07:17:11.860Z,99778.41
2019-01-10T07:19:12.537Z,99781.22
2019-01-10T07:21:13.465Z,99779.84
2019-01-10T07:23:15.401Z,99783.75
2019-01-10T07:25:18.606Z,99784.47
2019-01-10T07:27:21.631Z,99780.07
2019-01-10T07:29:25.890Z,99782.52
2019-01-10T07:31:26.703Z,99787.83
2019-01-10T07:33:27.667Z,99788.02
2019-01-10T07:35:28.670Z,99787.52
2019-01-10T07:37:29.840Z,99790.97
2019-01-10T07:39:34.331Z,99800.59
2019-01-10T07:41:38.947Z,99801.13
2019-01-10T07:43:39.715Z,99803.37
2019-01-10T07:45:40.424Z,99806.32
2019-01-10T07:47:41.370Z,99808.93
2019-01-10T07:49:42.212Z,99804.95
2019-01-10T07:51:42.914Z,99812.50
2019-01-10T07:53:43.733Z,99815.53
2019-01-10T07:55:45.418Z,99811.26
2019-01-10T07:57:46.131Z,99811.47
2019-01-10T07:59:46.973Z,99821.62
2019-01-10T08:01:47.657Z,99815.23
2019-01-10T08:03:48.361Z,99818.42
2019-01-10T08:05:49.308Z,99821.38
2019-01-10T08:07:50.155Z,99822.66
2019-01-10T08:09:51.067Z,99824.86
2019-01-10T08:12:00.129Z,99828.37
2019-01-10T08:13:56.138Z,99834.77
2019-01-10T08:15:57.155Z,99828.70
2019-01-10T08:18:06.271Z,99833.78
2019-01-10T08:20:09.556Z,99840.09
2019-01-10T08:22:10.591Z,99838.34
2019-01-10T08:24:12.591Z,99846.23
2019-01-10T08:26:15.567Z,99845.02
2019-01-10T08:28:16.135Z,99849.05
2019-01-10T08:30:19.232Z,99851.20
2019-01-10T08:32:21.121Z,99843.40
2019-01-10T08:34:22.012Z,99855.09
2019-01-10T08:36:32.121Z,99860.45
2019-01-10T08:38:25.579Z,99854.81
2019-01-10T08:40:26.653Z,99862.66
2019-01-10T08:42:27.513Z,99856.80
2019-01-10T08:44:28.205Z,99867.96
2019-01-10T08:46:30.990Z,99863.20
2019-01-10T08:48:32.631Z,99863.61
2019-01-10T08:50:33.555Z,99866.39
2019-01-10T08:52:34.713Z,99859.59
2019-01-10T08:54:35.543Z,99859.55
2019-01-10T08:56:36.440Z,99866.72
2019-01-10T08:58:37.309Z,99864.39
2019-01-10T09:00:38.251Z,99861.53
2019-01-10T09:02:40.716Z,99861.83
2019-01-10T09:04:41.548Z,99861.83
2019-01-10T09:06:42.274Z,99867.14
2019-01-10T09:08:43.248Z,99870.08
2019-01-10T09:10:43.977Z,99873.94
2019-01-10T09:12:45.745Z,99867.39
2019-01-10T09:14:46.571Z,99875.52
2019-01-10T09:16:47.286Z,99876.52
2019-01-10T09:18:48.079Z,99876.93
2019-01-10T09:21:03.982Z,99880.87
2019-01-10T09:23:01.265Z,99881.53
2019-01-10T09:25:04.548Z,99878.30
2019-01-10T09:27:06.220Z,99883.73
2019-01-10T09:29:06.837Z,99874.02
2019-01-10T09:31:07.643Z,99874.60
2019-01-10T09:33:12.312Z,99877.55
2019-01-10T09:35:12.973Z,99872.03
2019-01-10T09:37:13.615Z,99873.14
2019-01-10T09:39:20.608Z,99881.61
2019-01-10T09:41:21.348Z,99878.66
2019-01-10T09:43:29.335Z,99871.44
2019-01-10T09:45:30.048Z,99876.75
2019-01-10T09:47:41.000Z,99879.62
2019-01-10T09:49:33.299Z,99881.31
2019-01-10T09:51:33.972Z,99876.41
2019-01-10T09:53:34.655Z,99875.96
2019-01-10T09:55:35.382Z,99879.86
2019-01-10T09:57:36.171Z,99889.06
2019-01-10T09:59:36.930Z,99888.13
2019-01-10T10:01:37.599Z,99889.64
2019-01-10T10:03:38.369Z,99897.39
2019-01-10T10:05:39.043Z,99901.59
2019-01-10T10:07:40.036Z,99909.13
2019-01-10T10:09:40.686Z,99913.23
2019-01-10T10:11:41.322Z,99912.98
2019-01-10T10:13:41.984Z,99912.93
2019-01-10T10:15:42.703Z,99913.86
2019-01-10T10:17:43.426Z,99920.16
2019-01-10T10:19:44.221Z,99917.14
2019-01-10T10:21:45.278Z,99920.43
2019-01-10T10:23:47.007Z,99913.51
2019-01-10T10:25:48.652Z,99912.53
2019-01-10T10:27:55.159Z,99911.55
2019-01-10T10:29:56.876Z,99910.84
2019-01-10T10:31:57.531Z,99914.86
2019-01-10T10:33:58.290Z,99915.09
2019-01-10T10:36:02.664Z,99912.48
2019-01-10T10:38:04.670Z,99909.59
2019-01-10T10:40:16.180Z,99913.30
2019-01-10T10:42:17.117Z,99907.27
2019-01-10T10:44:19.088Z,99909.78
2019-01-10T10:46:25.782Z,99902.45
2019-01-10T10:48:26.417Z,99907.13
2019-01-10T10:50:27.590Z,99898.09
2019-01-10T10:55:13.319Z,99901.63
2019-01-10T10:57:14.057Z,99908.06
2019-01-10T10:59:17.785Z,99898.84
2019-01-10T11:01:19.745Z,99898.80
2019-01-10T11:03:20.729Z,99905.61
2019-01-10T11:05:21.462Z,99907.46
2019-01-10T11:07:24.137Z,99898.96
2019-01-10T11:09:30.556Z,99910.41
2019-01-10T11:11:31.201Z,99901.20
2019-01-10T11:13:31.934Z,99899.80
2019-01-10T11:15:32.655Z,99901.25
2019-01-10T11:17:33.381Z,99895.19
2019-01-10T11:19:34.150Z,99893.61
2019-01-10T11:21:34.890Z,99893.14
2019-01-10T11:23:36.628Z,99895.54
2019-01-10T11:25:38.401Z,99886.55
2019-01-10T11:27:39.210Z,99880.00
2019-01-10T11:29:39.983Z,99883.04
2019-01-10T11:31:43.831Z,99884.99
2019-01-10T11:33:54.690Z,99878.06
2019-01-10T11:35:55.575Z,99878.09
2019-01-10T11:37:57.432Z,99881.94
2019-01-10T11:39:58.271Z,99882.06
2019-01-10T11:42:00.057Z,99878.47
2019-01-10T11:44:01.786Z,99881.88
2019-01-10T11:46:04.783Z,99876.16
2019-01-10T11:48:08.498Z,99874.05
2019-01-10T11:50:15.364Z,99871.83
2019-01-10T11:52:16.120Z,99870.72
2019-01-10T11:54:17.022Z,99874.57
2019-01-10T11:56:17.829Z,99876.78
2019-01-10T11:58:19.739Z,99876.26
2019-01-10T12:00:23.414Z,99874.70
2019-01-10T12:02:25.243Z,99879.67
2019-01-10T12:04:26.110Z,99878.17
2019-01-10T12:06:26.764Z,99883.23
2019-01-10T12:08:27.874Z,99876.77
2019-01-10T12:10:29.072Z,99882.41
2019-01-10T12:12:29.752Z,99878.01
2019-01-10T12:14:32.157Z,99877.70
2019-01-10T12:16:32.984Z,99887.03
2019-01-10T12:18:33.932Z,99880.84
2019-01-10T12:20:40.490Z,99880.30
2019-01-10T12:22:41.411Z,99873.39
2019-01-10T12:24:42.431Z,99868.05
2019-01-10T12:26:43.572Z,99874.03
2019-01-10T12:28:46.656Z,99874.05
2019-01-10T12:30:47.798Z,99869.55
2019-01-10T12:32:48.720Z,99870.00
2019-01-10T12:34:49.764Z,99875.34
2019-01-10T12:37:00.341Z,99872.77
2019-01-10T12:38:55.229Z,99870.38
2019-01-10T12:40:56.008Z,99871.10
2019-01-10T12:42:56.748Z,99874.97
2019-01-10T12:44:57.490Z,99870.73
2019-01-10T12:46:58.190Z,99866.14
2019-01-10T12:48:59.157Z,99868.61
2019-01-10T12:50:59.874Z,99864.39
2019-01-10T12:53:00.502Z,99871.58
2019-01-10T12:55:01.483Z,99870.55
2019-01-10T12:57:02.426Z,99875.89
2019-01-10T12:59:03.165Z,99875.44
2019-01-10T13:01:06.400Z,99869.83
2019-01-10T13:03:07.500Z,99873.70
2019-01-10T13:05:08.468Z,99868.53
2019-01-10T13:07:09.530Z,99869.82
2019-01-10T13:09:10.665Z,99866.14
2019-01-10T13:11:11.557Z,99866.41
2019-01-10T13:13:13.467Z,99866.51
2019-01-10T13:15:20.149Z,99865.77
2019-01-10T13:17:21.147Z,99862.27
2019-01-10T13:19:22.116Z,99865.95
2019-01-10T13:21:22.759Z,99871.84
2019-01-10T13:23:24.487Z,99867.98
2019-01-10T13:25:25.515Z,99871.84
2019-01-10T13:27:26.466Z,99877.28
2019-01-10T13:29:27.397Z,99870.28
2019-01-10T13:31:28.329Z,99871.67
2019-01-10T13:33:29.027Z,99876.27
2019-01-10T13:35:29.756Z,99874.16
2019-01-10T13:37:30.500Z,99876.08
2019-01-10T13:39:31.250Z,99879.40
2019-01-10T13:41:31.933Z,99879.95
2019-01-10T13:43:32.690Z,99882.53
2019-01-10T13:45:33.596Z,99881.98
2019-01-10T13:47:34.317Z,99876.27
2019-01-10T13:49:35.061Z,99885.11
2019-01-10T13:51:35.842Z,99892.11
2019-01-10T13:53:36.460Z,99881.70
2019-01-10T13:55:37.127Z,99888.05
2019-01-10T13:57:37.819Z,99885.30
2019-01-10T13:59:38.502Z,99892.64
2019-01-10T14:01:39.167Z,99891.17
2019-01-10T14:03:39.973Z,99887.40
2019-01-10T14:05:40.896Z,99886.67
2019-01-10T14:07:41.789Z,99890.27
2019-01-10T14:09:44.698Z,99888.05
2019-01-10T14:11:46.484Z,99891.72
2019-01-10T14:13:57.792Z,99888.70
2019-01-10T14:15:51.487Z,99877.19
2019-01-10T14:17:58.390Z,99885.48
2019-01-10T14:19:59.361Z,99889.72
2019-01-10T14:22:00.340Z,99891.36
2019-01-10T14:24:01.502Z,99892.63
2019-01-10T14:26:02.723Z,99899.61
2019-01-10T14:28:05.741Z,99898.81
2019-01-10T14:30:21.251Z,99899.46
2019-01-10T14:32:28.589Z,99899.19
2019-01-10T14:34:30.681Z,99900.41
2019-01-10T14:36:33.110Z,99905.38
2019-01-10T14:38:41.218Z,99910.91
2019-01-10T14:40:42.177Z,99917.44
2019-01-10T14:42:44.878Z,99915.69
2019-01-10T14:44:45.906Z,99915.50
2019-01-10T14:46:47.028Z,99916.25
2019-01-10T14:48:47.846Z,99906.67
2019-01-10T14:50:51.189Z,99920.00
2019-01-10T14:52:51.768Z,99922.33
2019-01-10T14:54:52.964Z,99912.56
2019-01-10T14:56:57.915Z,99916.98
2019-01-10T14:58:56.535Z,99920.21
2019-01-10T15:00:57.476Z,99919.72
2019-01-10T15:02:58.183Z,99919.31
2019-01-10T15:04:59.220Z,99922.09
2019-01-10T15:07:00.111Z,99931.63
2019-01-10T15:09:00.831Z,99924.13
2019-01-10T15:11:01.811Z,99926.60
2019-01-10T15:13:02.942Z,99930.19
2019-01-10T15:15:10.127Z,99929.46
2019-01-10T15:17:13.892Z,99923.74
2019-01-10T15:19:14.119Z,99922.38
2019-01-10T15:21:16.536Z,99918.80
2019-01-10T15:23:17.388Z,99920.89
2019-01-10T15:25:18.187Z,99929.30
2019-01-10T15:27:19.022Z,99930.03
2019-01-10T15:29:20.268Z,99930.76
2019-01-10T15:31:21.484Z,99925.69
2019-01-10T15:33:26.372Z,99922.52
2019-01-10T15:35:27.258Z,99927.13
2019-01-10T15:37:28.349Z,99932.67
2019-01-10T15:39:29.103Z,99929.78
2019-01-10T15:41:32.582Z,99930.84
2019-01-10T15:43:33.535Z,99929.24
2019-01-10T15:45:34.376Z,99932.73
2019-01-10T15:47:36.289Z,99932.73
2019-01-10T15:49:37.122Z,99941.91
2019-01-10T15:51:44.802Z,99949.99
2019-01-10T15:53:45.696Z,99955.52
2019-01-10T15:55:46.326Z,99947.61
2019-01-10T15:57:47.064Z,99955.53
2019-01-10T15:59:48.834Z,99960.69
2019-01-10T16:01:49.529Z,99962.31
2019-01-10T16:03:50.350Z,99966.36
2019-01-10T16:05:51.198Z,99959.56
2019-01-10T16:07:51.878Z,99960.65
2019-01-10T16:09:52.566Z,99963.19
2019-01-10T16:11:53.360Z,99958.70
2019-01-10T16:13:54.070Z,99954.67
2019-01-10T16:15:55.761Z,99956.50
2019-01-10T16:17:58.698Z,99962.94
2019-01-10T16:20:00.442Z,99956.88
2019-01-10T16:22:01.344Z,99960.27
2019-01-10T16:24:02.432Z,99964.63
2019-01-10T16:26:03.153Z,99960.59
2019-01-10T16:28:04.143Z,99957.57
2019-01-10T16:30:14.344Z,99948.47
2019-01-10T16:32:15.101Z,99949.75
2019-01-10T16:34:15.956Z,99947.63
2019-01-10T16:36:16.797Z,99954.66
2019-01-10T16:38:17.805Z,99959.85
2019-01-10T16:40:20.439Z,99959.31
2019-01-10T16:42:21.165Z,99961.34
2019-01-10T16:44:22.032Z,99961.20
2019-01-10T16:46:22.863Z,99966.80
2019-01-10T16:48:24.104Z,99964.75
2019-01-10T16:50:25.049Z,99968.36
2019-01-10T16:52:25.927Z,99962.31
2019-01-10T16:54:26.737Z,99966.23
2019-01-10T16:56:30.959Z,99962.45
2019-01-10T16:58:31.737Z,99958.80
2019-01-10T17:00:40.537Z,99957.00
2019-01-10T17:02:42.817Z,99966.04
2019-01-10T17:04:43.879Z,99964.84
2019-01-10T17:06:44.870Z,99960.92
2019-01-10T17:08:45.656Z,99960.15
2019-01-10T17:10:46.726Z,99953.86
2019-01-10T17:12:47.439Z,99960.55
2019-01-10T17:14:48.802Z,99956.72
2019-01-10T17:16:50.273Z,99962.00
2019-01-10T17:18:51.739Z,99965.27
2019-01-10T17:20:52.412Z,99961.03
2019-01-10T17:22:53.170Z,99962.37
2019-01-10T17:24:54.283Z,99959.75
2019-01-10T17:26:56.202Z,99968.36
2019-01-10T17:28:57.223Z,99965.85
2019-01-10T17:30:58.095Z,99966.28
2019-01-10T17:32:58.805Z,99970.58
2019-01-10T17:35:02.506Z,99967.27
2019-01-10T17:37:03.395Z,99971.70
2019-01-10T17:39:06.357Z,99972.63
2019-01-10T17:41:07.067Z,99970.01
2019-01-10T17:43:10.109Z,99973.39
2019-01-10T17:45:15.126Z,99969.45
2019-01-10T17:47:15.938Z,99971.53
2019-01-10T17:49:16.711Z,99973.13
2019-01-10T17:51:17.402Z,99972.69
2019-01-10T17:53:18.188Z,99979.02
2019-01-10T17:55:18.886Z,99982.66
2019-01-10T17:57:19.583Z,99982.58
2019-01-10T17:59:20.314Z,99987.95
2019-01-10T18:01:21.139Z,99993.02
2019-01-10T18:03:22.014Z,99994.98
2019-01-10T18:05:22.746Z,99993.26
2019-01-10T18:07:23.527Z,99991.13
2019-01-10T18:09:24.569Z,99991.13
2019-01-10T18:11:25.544Z,99990.73
2019-01-10T18:13:26.285Z,99989.56
2019-01-10T18:15:27.224Z,99994.72
2019-01-10T18:17:28.238Z,99998.95
2019-01-10T18:19:29.925Z,99993.72
2019-01-10T18:21:30.697Z,99997.73
2019-01-10T18:23:32.438Z,99987.68
2019-01-10T18:25:33.208Z,99993.58
2019-01-10T18:27:37.339Z,99991.91
2019-01-10T18:29:39.281Z,99995.09
2019-01-10T18:31:47.628Z,99997.28
2019-01-10T18:36:27.152Z,100000.53
2019-01-10T18:38:28.154Z,100000.07
2019-01-10T18:40:46.855Z,99998.56
2019-01-10T18:42:47.875Z,99990.53
2019-01-10T18:45:17.419Z,99995.08
2019-01-10T18:47:41.669Z,99994.45
2019-01-10T18:52:47.657Z,99983.65
2019-01-10T18:55:17.436Z,99988.27
2019-01-10T18:56:33.038Z,99989.10
2019-01-10T18:58:33.948Z,99994.63
2019-01-10T19:00:34.611Z,100002.58
2019-01-10T19:02:35.586Z,100003.94
2019-01-10T19:04:36.690Z,100000.42
2019-01-10T19:06:37.368Z,99998.95
2019-01-10T19:08:38.185Z,100008.92
2019-01-10T19:10:39.821Z,100008.01
2019-01-10T19:12:40.573Z,100004.77
2019-01-10T19:14:41.244Z,100001.20
2019-01-10T19:16:42.299Z,100000.13
2019-01-10T19:18:43.084Z,99998.38
2019-01-10T19:20:43.763Z,99998.81
2019-01-10T19:22:44.493Z,99993.35
2019-01-10T19:24:45.245Z,99998.58
2019-01-10T19:26:47.137Z,100000.77
2019-01-10T19:28:47.840Z,99999.17
2019-01-10T19:30:48.523Z,100002.65
2019-01-10T19:32:49.509Z,100002.41
2019-01-10T19:34:50.267Z,99993.86
2019-01-10T19:36:50.878Z,99992.30
2019-01-10T19:38:51.809Z,99986.86
2019-01-10T19:40:52.561Z,99993.47
2019-01-10T19:42:53.492Z,99992.99
2019-01-10T19:44:54.198Z,100001.38
2019-01-10T19:46:54.980Z,100001.26
2019-01-10T19:49:05.150Z,99993.77
2019-01-10T19:51:05.788Z,99995.82
2019-01-10T19:53:15.779Z,99999.97
2019-01-10T19:55:17.997Z,100004.47
2019-01-10T19:57:18.864Z,100006.35
2019-01-10T19:59:19.660Z,100018.75
2019-01-10T20:01:20.414Z,100013.50
2019-01-10T20:03:21.205Z,100007.53
2019-01-10T20:05:22.166Z,100010.20
2019-01-10T20:07:24.084Z,100014.41
2019-01-10T20:09:29.976Z,100018.84
2019-01-10T20:11:27.708Z,100016.91
2019-01-10T20:13:29.370Z,100012.47
2019-01-10T20:15:30.052Z,100018.59
2019-01-10T20:17:30.794Z,100011.79
2019-01-10T20:19:31.514Z,100015.42
2019-01-10T20:21:32.435Z,100014.22
2019-01-10T20:23:38.183Z,100025.17
2019-01-10T20:25:39.470Z,100023.44
2019-01-10T20:27:40.156Z,100028.88
2019-01-10T20:29:42.091Z,100028.80
2019-01-10T20:31:42.990Z,100026.23
2019-01-10T20:33:43.701Z,100028.95
2019-01-10T20:35:44.745Z,100022.53
2019-01-10T20:37:45.482Z,100029.11
2019-01-10T20:39:46.450Z,100023.14
2019-01-10T20:41:47.425Z,100034.51
2019-01-10T20:43:48.295Z,100043.27
2019-01-10T20:45:49.277Z,100048.54
2019-01-10T20:47:49.975Z,100045.06
2019-01-10T20:49:50.805Z,100036.20
2019-01-10T20:51:51.504Z,100037.64
2019-01-10T20:53:52.494Z,100030.55
2019-01-10T20:55:53.499Z,100038.89
2019-01-10T20:57:54.169Z,100035.08
2019-01-10T20:59:54.958Z,100029.15
2019-01-10T21:01:56.028Z,100036.06
2019-01-10T21:03:56.729Z,100041.81
2019-01-10T21:05:57.743Z,100029.64
2019-01-10T21:07:58.501Z,100025.86
2019-01-10T21:09:59.637Z,100023.97
2019-01-10T21:12:00.664Z,100029.86
2019-01-10T21:14:01.422Z,100037.20
2019-01-10T21:16:02.278Z,100029.72
2019-01-10T21:18:03.278Z,100038.25
2019-01-10T21:20:07.293Z,100043.63
2019-01-10T21:22:08.045Z,100047.33
2019-01-10T21:24:08.765Z,100042.48
2019-01-10T21:26:10.721Z,100039.66
2019-01-10T21:28:17.323Z,100039.06
2019-01-10T21:30:21.533Z,100044.25
2019-01-10T21:32:22.182Z,100040.39
2019-01-10T21:34:22.934Z,100040.13
2019-01-10T21:36:26.841Z,100039.19
2019-01-10T21:38:27.802Z,100046.48
2019-01-10T21:40:30.772Z,100041.47
2019-01-10T21:42:35.793Z,100046.64
2019-01-10T21:44:34.499Z,100043.48
2019-01-10T21:46:35.579Z,100045.52
2019-01-10T21:48:36.981Z,100039.66
2019-01-10T21:50:37.652Z,100038.71
2019-01-10T21:52:38.689Z,100037.95
2019-01-10T21:54:45.503Z,100033.64
2019-01-10T21:56:46.262Z,100030.81
2019-01-10T21:58:47.152Z,100033.95
2019-01-10T22:00:47.934Z,100033.49
2019-01-10T22:02:48.945Z,100025.70
2019-01-10T22:04:52.153Z,100028.20
2019-01-10T22:06:53.312Z,100030.55
2019-01-10T22:08:54.365Z,100026.95
2019-01-10T22:10:55.707Z,100017.84
2019-01-10T22:12:57.907Z,100021.62
2019-01-10T22:14:58.761Z,100024.05
2019-01-10T22:16:59.918Z,100017.13
2019-01-10T22:19:01.438Z,100020.19
2019-01-10T22:21:03.193Z,100018.83
2019-01-10T22:23:03.893Z,100010.89
2019-01-10T22:25:05.659Z,100020.48
2019-01-10T22:27:07.322Z,100021.02
2019-01-10T22:29:08.059Z,100015.42
2019-01-10T22:31:09.032Z,100012.86
2019-01-10T22:33:10.203Z,100012.48
2019-01-10T22:35:14.054Z,100015.66
2019-01-10T22:37:16.370Z,100016.03
2019-01-10T22:39:17.690Z,100011.80
2019-01-10T22:41:18.941Z,100013.16
2019-01-10T22:43:19.965Z,100014.59
2019-01-10T22:45:21.108Z,100014.75
2019-01-10T22:47:21.818Z,100008.92
2019-01-10T22:49:24.027Z,100003.26
2019-01-10T22:51:25.219Z,100005.27
2019-01-10T22:53:26.357Z,100002.58
2019-01-10T22:55:28.039Z,100002.09
2019-01-10T22:57:29.129Z,100004.84
2019-01-10T22:59:30.459Z,100005.52
2019-01-10T23:01:34.262Z,100006.08
2019-01-10T23:03:36.899Z,100007.13
2019-01-10T23:05:42.515Z,100008.27
2019-01-10T23:07:43.700Z,99999.20
2019-01-10T23:09:45.179Z,100005.08
2019-01-10T23:11:46.160Z,100001.97
2019-01-10T23:13:55.224Z,100005.61
2019-01-10T23:15:56.674Z,100005.23
2019-01-10T23:17:58.998Z,100008.94
2019-01-10T23:20:00.272Z,100004.92
2019-01-10T23:22:10.031Z,100008.11
2019-01-10T23:24:11.575Z,100001.62
2019-01-10T23:26:12.874Z,100007.04
2019-01-10T23:28:14.229Z,100005.92
2019-01-10T23:30:15.518Z,100002.07
2019-01-10T23:32:16.773Z,100006.69
2019-01-10T23:34:18.134Z,100011.28
2019-01-10T23:36:18.927Z,100003.27
2019-01-10T23:38:20.836Z,99998.80
2019-01-10T23:40:21.845Z,99999.88
2019-01-10T23:42:22.884Z,99999.52
2019-01-10T23:44:23.920Z,100000.65
2019-01-10T23:46:24.957Z,99999.13
2019-01-10T23:48:25.922Z,100000.95
2019-01-10T23:50:27.999Z,100000.04
2019-01-10T23:52:29.658Z,100002.16
2019-01-10T23:54:31.786Z,100005.41